Atalandi — SVBA — position and weather

sailwx.info

Track history (hours):
 
Tides and Currents Weather Stations Pressure Air Temp Water Temp Dewpoint Dewpoint Depression Visibility Wind Speed Wind Dir Waves Ship Positions

Atalandi

Last reported at 2016-May-02 04:33 UTC. Time now 2016-May-02 05:56 UTC.
Position N 29°21' W 013°56'.

Length 248 m; draft 8.5 m.

Type: Ship. MMSI: 240269000.

Date/timePositionNaut miles runAvg speedWind from/ knotsBaromVisibWave heightAir tempDewpointWater temp
2016-May-02 04:33N 29°21' W 013°56'1814.5
2016-May-02 03:18N 29°35' W 013°42'56013.4
2016-Apr-30 09:27N 35°57' W 005°36'1112.3
2016-Apr-30 08:33N 36°01' W 005°23'1110.7
2016-Apr-30 07:34N 36°03' W 005°10'20012.4
2016-Apr-29 15:24N 37°06' W 001°14'1113.2
2016-Apr-29 14:33N 37°13' W 001°04'1313.0
2016-Apr-29 13:33N 37°22' W 000°51'1313.0
2016-Apr-29 12:33N 37°30' W 000°39'1212.1
2016-Apr-29 11:33N 37°39' W 000°29'1212.0
2016-Apr-29 10:34N 37°49' W 000°20'1212.4
2016-Apr-29 09:33N 37°60' W 000°11'12712.6
2016-Apr-28 23:30N 39°55' E 000°56'1212.1
2016-Apr-28 22:30N 40°06' E 000°59'1212.2
2016-Apr-28 21:31N 40°18' E 001°00'1312.1
2016-Apr-28 20:26N 40°31' E 001°05'35 0.8
2016-Apr-27 02:29N 41°05' E 001°13'0 0.0
2016-Apr-26 16:28N 41°06' E 001°13'4 0.1
2016-Apr-24 16:32N 41°03' E 001°17'0 0.0
2016-Apr-23 17:32N 41°04' E 001°17'0 0.1
2016-Apr-23 16:32N 41°04' E 001°17'0 0.0
2016-Apr-23 15:32N 41°04' E 001°17'0 0.0
2016-Apr-23 14:08N 41°04' E 001°17'0 0.1
2016-Apr-23 13:32N 41°04' E 001°17'0 0.0
2016-Apr-23 12:26N 41°04' E 001°17'0 0.0
2016-Apr-23 10:26N 41°04' E 001°16'0 0.0
2016-Apr-23 01:32N 41°03' E 001°16'0 0.0
2016-Apr-23 00:32N 41°03' E 001°16'0 0.1
2016-Apr-22 22:08N 41°03' E 001°17'0 0.0
2016-Apr-22 21:32N 41°03' E 001°17'0 0.0
2016-Apr-22 16:32N 41°04' E 001°16'0 0.0
2016-Apr-22 15:26N 41°04' E 001°16'0 0.1
2016-Apr-22 14:32N 41°04' E 001°16'0 0.0
2016-Apr-22 13:29N 41°04' E 001°16'0 0.1
2016-Apr-22 12:32N 41°03' E 001°16'0 0.0
2016-Apr-22 07:23N 41°03' E 001°16'4 5.1
2016-Apr-22 06:32N 41°00' E 001°12'1312.8
2016-Apr-22 05:30N 40°47' E 001°08'1212.7
2016-Apr-22 04:33N 40°36' E 001°05'  
Track history (hours):
 
Tides and Currents Weather Stations Pressure Air Temp Water Temp Dewpoint Dewpoint Depression Visibility Wind Speed Wind Dir Waves Ship Positions

Atalandi

Last reported at 2016-May-02 04:33 UTC. Time now 2016-May-02 05:56 UTC.
Position N 29°21' W 013°56'.

Length 248 m; draft 8.5 m.

Type: Ship. MMSI: 240269000.

Date/timePositionNaut miles runAvg speedWind from/ knotsBaromVisibWave heightAir tempDewpointWater temp
2016-May-02 04:33N 29°21' W 013°56'1814.5
2016-May-02 03:18N 29°35' W 013°42'56013.4
2016-Apr-30 09:27N 35°57' W 005°36'1112.3
2016-Apr-30 08:33N 36°01' W 005°23'1110.7
2016-Apr-30 07:34N 36°03' W 005°10'20012.4
2016-Apr-29 15:24N 37°06' W 001°14'1113.2
2016-Apr-29 14:33N 37°13' W 001°04'1313.0
2016-Apr-29 13:33N 37°22' W 000°51'1313.0
2016-Apr-29 12:33N 37°30' W 000°39'1212.1
2016-Apr-29 11:33N 37°39' W 000°29'1212.0
2016-Apr-29 10:34N 37°49' W 000°20'1212.4
2016-Apr-29 09:33N 37°60' W 000°11'12712.6
2016-Apr-28 23:30N 39°55' E 000°56'1212.1
2016-Apr-28 22:30N 40°06' E 000°59'1212.2
2016-Apr-28 21:31N 40°18' E 001°00'1312.1
2016-Apr-28 20:26N 40°31' E 001°05'35 0.8
2016-Apr-27 02:29N 41°05' E 001°13'0 0.0
2016-Apr-26 16:28N 41°06' E 001°13'4 0.1
2016-Apr-24 16:32N 41°03' E 001°17'0 0.0
2016-Apr-23 17:32N 41°04' E 001°17'0 0.1
2016-Apr-23 16:32N 41°04' E 001°17'0 0.0
2016-Apr-23 15:32N 41°04' E 001°17'0 0.0
2016-Apr-23 14:08N 41°04' E 001°17'0 0.1
2016-Apr-23 13:32N 41°04' E 001°17'0 0.0
2016-Apr-23 12:26N 41°04' E 001°17'0 0.0
2016-Apr-23 10:26N 41°04' E 001°16'0 0.0
2016-Apr-23 01:32N 41°03' E 001°16'0 0.0
2016-Apr-23 00:32N 41°03' E 001°16'0 0.1
2016-Apr-22 22:08N 41°03' E 001°17'0 0.0
2016-Apr-22 21:32N 41°03' E 001°17'0 0.0
2016-Apr-22 16:32N 41°04' E 001°16'0 0.0
2016-Apr-22 15:26N 41°04' E 001°16'0 0.1
2016-Apr-22 14:32N 41°04' E 001°16'0 0.0
2016-Apr-22 13:29N 41°04' E 001°16'0 0.1
2016-Apr-22 12:32N 41°03' E 001°16'0 0.0
2016-Apr-22 07:23N 41°03' E 001°16'4 5.1
2016-Apr-22 06:32N 41°00' E 001°12'1312.8
2016-Apr-22 05:30N 40°47' E 001°08'1212.7
2016-Apr-22 04:33N 40°36' E 001°05'  

Dump ship's entire track history